createdAt,value
2023-04-24T00:00:47.052Z,9.67
2023-04-24T00:05:50.268Z,9.62
2023-04-24T00:10:54.278Z,9.54
2023-04-24T00:15:58.750Z,9.42
2023-04-24T00:21:02.106Z,9.43
2023-04-24T00:26:05.392Z,9.39
2023-04-24T00:31:09.944Z,9.27
2023-04-24T00:36:12.937Z,9.29
2023-04-24T00:41:15.859Z,9.28
2023-04-24T00:46:23.200Z,9.33
2023-04-24T00:51:26.550Z,9.37
2023-04-24T00:56:29.933Z,9.40
2023-04-24T01:01:34.922Z,9.42
2023-04-24T01:06:40.744Z,9.48
2023-04-24T01:11:44.309Z,9.51
2023-04-24T01:16:50.841Z,9.54
2023-04-24T01:21:56.555Z,9.59
2023-04-24T01:27:01.975Z,9.57
2023-04-24T01:32:05.579Z,9.55
2023-04-24T01:37:08.708Z,9.54
2023-04-24T01:42:14.475Z,9.51
2023-04-24T01:47:17.708Z,9.45
2023-04-24T01:52:21.283Z,9.47
2023-04-24T01:57:25.872Z,9.44
2023-04-24T02:02:29.834Z,9.50
2023-04-24T02:07:33.831Z,9.50
2023-04-24T02:12:38.267Z,9.50
2023-04-24T02:17:41.654Z,9.51
2023-04-24T02:22:44.770Z,9.51
2023-04-24T02:27:49.675Z,9.52
2023-04-24T02:32:52.701Z,9.55
2023-04-24T02:37:55.717Z,9.53
2023-04-24T02:43:00.101Z,9.48
2023-04-24T02:48:03.161Z,9.45
2023-04-24T02:53:06.609Z,9.43
2023-04-24T02:58:11.766Z,9.43
2023-04-24T03:03:14.917Z,9.40
2023-04-24T03:08:18.996Z,9.40
2023-04-24T03:13:23.684Z,9.38
2023-04-24T03:18:26.933Z,9.37
2023-04-24T03:23:29.966Z,9.34
2023-04-24T03:28:34.519Z,9.34
2023-04-24T03:33:40.639Z,9.30
2023-04-24T03:38:43.959Z,9.26
2023-04-24T03:44:01.654Z,9.11
2023-04-24T03:49:04.818Z,9.05
2023-04-24T03:54:12.166Z,9.07
2023-04-24T03:59:18.282Z,9.05
2023-04-24T04:04:26.904Z,9.07
2023-04-24T04:09:30.082Z,9.03
2023-04-24T04:14:34.426Z,9.02
2023-04-24T04:19:37.452Z,9.01
2023-04-24T04:24:41.695Z,8.95
2023-04-24T04:29:47.802Z,8.85
2023-04-24T04:34:54.383Z,8.77
2023-04-24T04:39:59.829Z,8.85
2023-04-24T04:45:10.665Z,8.91
2023-04-24T04:50:25.189Z,8.88
2023-04-24T04:55:33.525Z,8.89
2023-04-24T05:00:45.891Z,8.90
2023-04-24T05:05:55.051Z,8.82
2023-04-24T05:10:58.719Z,8.86
2023-04-24T05:16:06.142Z,8.89
2023-04-24T05:21:09.516Z,8.87
2023-04-24T05:26:15.643Z,8.67
2023-04-24T05:31:20.880Z,8.81
2023-04-24T05:36:24.009Z,8.81
2023-04-24T05:41:27.195Z,8.79
2023-04-24T05:46:31.761Z,8.71
2023-04-24T05:51:34.999Z,8.59
2023-04-24T05:56:38.089Z,8.61
2023-04-24T06:01:43.955Z,8.61
2023-04-24T06:06:56.736Z,8.55
2023-04-24T06:12:01.033Z,8.52
2023-04-24T06:17:15.144Z,8.38
2023-04-24T06:22:18.872Z,8.40
2023-04-24T06:27:22.030Z,8.31
2023-04-24T06:32:28.409Z,8.20
2023-04-24T06:37:31.672Z,8.18
2023-04-24T06:42:35.947Z,8.16
2023-04-24T06:47:41.718Z,8.19
2023-04-24T06:52:45.357Z,8.22
2023-04-24T06:57:48.549Z,8.21
2023-04-24T07:02:53.055Z,8.20
2023-04-24T07:07:56.230Z,8.15
2023-04-24T07:12:59.259Z,8.13
2023-04-24T07:18:05.896Z,8.15
2023-04-24T07:23:09.522Z,8.16
2023-04-24T07:28:12.725Z,8.02
2023-04-24T07:33:17.420Z,8.04
2023-04-24T07:38:22.168Z,8.08
2023-04-24T07:43:25.869Z,8.11
2023-04-24T07:48:30.341Z,7.95
2023-04-24T07:53:33.751Z,7.93
2023-04-24T07:58:36.942Z,7.94
2023-04-24T08:03:41.667Z,8.08
2023-04-24T08:08:44.877Z,8.26
2023-04-24T08:13:47.832Z,8.42
2023-04-24T08:18:53.102Z,8.55
2023-04-24T08:23:56.141Z,8.97
2023-04-24T08:28:59.387Z,9.18
2023-04-24T08:34:03.985Z,8.97
2023-04-24T08:39:07.798Z,8.84
2023-04-24T08:44:11.786Z,8.98
2023-04-24T08:49:18.402Z,9.28
2023-04-24T08:54:21.763Z,9.32
2023-04-24T08:59:25.462Z,8.76
2023-04-24T09:04:31.781Z,9.01
2023-04-24T09:09:35.452Z,9.45
2023-04-24T09:14:40.506Z,9.58
2023-04-24T09:19:44.933Z,9.45
2023-04-24T09:24:48.424Z,9.42
2023-04-24T09:29:57.730Z,9.15
2023-04-24T09:35:13.572Z,9.36
2023-04-24T09:40:19.431Z,9.94
2023-04-24T09:45:22.561Z,9.96
2023-04-24T09:50:27.051Z,9.76
2023-04-24T09:55:30.295Z,9.45
2023-04-24T10:00:35.003Z,9.23
2023-04-24T10:05:40.671Z,9.66
2023-04-24T10:10:45.557Z,10.61
2023-04-24T10:15:51.226Z,10.84
2023-04-24T10:20:57.206Z,11.23
2023-04-24T10:26:02.515Z,11.41
2023-04-24T10:31:06.009Z,11.17
2023-04-24T10:36:12.140Z,11.39
2023-04-24T10:41:17.453Z,11.41
2023-04-24T10:46:23.846Z,10.67
2023-04-24T10:51:49.627Z,10.52
2023-04-24T10:56:53.234Z,9.69
2023-04-24T11:01:57.202Z,10.28
2023-04-24T11:07:01.865Z,11.08
2023-04-24T11:12:08.748Z,11.16
2023-04-24T11:17:31.040Z,11.16
2023-04-24T11:22:37.433Z,11.09
2023-04-24T11:27:42.905Z,11.22
2023-04-24T11:32:49.565Z,10.81
2023-04-24T11:43:02.976Z,11.86
2023-04-24T11:48:06.238Z,12.23
2023-04-24T11:53:12.227Z,10.50
2023-04-24T11:58:15.245Z,10.58
2023-04-24T12:03:18.532Z,10.98
2023-04-24T12:08:32.181Z,11.82
2023-04-24T12:13:35.926Z,12.50
2023-04-24T12:18:44.150Z,12.42
2023-04-24T12:23:48.872Z,12.34
2023-04-24T12:28:52.501Z,12.41
2023-04-24T12:33:57.125Z,12.91
2023-04-24T12:39:02.089Z,12.85
2023-04-24T12:44:05.296Z,12.51
2023-04-24T12:49:08.397Z,12.47
2023-04-24T12:54:12.997Z,12.49
2023-04-24T12:59:16.147Z,11.78
2023-04-24T13:04:19.793Z,11.18
2023-04-24T13:09:24.841Z,10.41
2023-04-24T13:14:27.912Z,9.97
2023-04-24T13:19:31.639Z,9.65
2023-04-24T13:24:38.005Z,9.53
2023-04-24T13:29:43.096Z,10.04
2023-04-24T13:34:47.020Z,10.40
2023-04-24T13:39:52.477Z,10.96
2023-04-24T13:44:56.067Z,11.15
2023-04-24T13:49:59.270Z,11.41
2023-04-24T13:55:03.725Z,11.63
2023-04-24T14:00:11.641Z,11.46
2023-04-24T14:05:16.588Z,9.98
2023-04-24T14:10:21.417Z,9.47
2023-04-24T14:15:24.537Z,9.07
2023-04-24T14:20:27.520Z,9.59
2023-04-24T14:25:32.291Z,9.89
2023-04-24T14:30:35.427Z,10.20
2023-04-24T14:35:38.579Z,10.31
2023-04-24T14:45:49.570Z,11.06
2023-04-24T14:50:52.603Z,11.27
2023-04-24T14:55:57.074Z,11.56
2023-04-24T15:01:00.547Z,11.69
2023-04-24T15:06:04.053Z,11.95
2023-04-24T15:11:09.037Z,12.06
2023-04-24T15:16:12.240Z,11.54
2023-04-24T15:21:15.922Z,12.30
2023-04-24T15:26:21.549Z,11.96
2023-04-24T15:31:24.790Z,11.43
2023-04-24T15:36:27.980Z,11.32
2023-04-24T15:41:32.899Z,11.15
2023-04-24T15:46:36.763Z,11.60
2023-04-24T15:51:39.985Z,12.25
2023-04-24T15:56:45.613Z,12.36
2023-04-24T16:01:48.797Z,11.53
2023-04-24T16:06:52.949Z,11.25
2023-04-24T16:11:57.948Z,11.33
2023-04-24T16:17:04.892Z,11.28
2023-04-24T16:22:07.894Z,11.31
2023-04-24T16:27:12.616Z,10.88
2023-04-24T16:32:15.761Z,11.36
2023-04-24T16:37:19.406Z,10.82
2023-04-24T16:42:23.936Z,10.71
2023-04-24T16:47:27.004Z,11.44
2023-04-24T16:52:30.129Z,11.02
2023-04-24T16:57:36.500Z,11.02
2023-04-24T17:02:40.104Z,10.79
2023-04-24T17:07:43.770Z,10.67
2023-04-24T17:12:48.523Z,10.49
2023-04-24T17:17:51.603Z,10.43
2023-04-24T17:22:54.722Z,10.54
2023-04-24T17:27:59.113Z,10.47
2023-04-24T17:33:02.271Z,10.41
2023-04-24T17:38:05.395Z,10.48
2023-04-24T17:43:09.985Z,10.26
2023-04-24T17:48:13.738Z,10.24
2023-04-24T17:53:18.907Z,10.39
2023-04-24T17:58:23.493Z,10.18
2023-04-24T18:03:26.711Z,9.61
2023-04-24T18:08:29.819Z,9.44
2023-04-24T18:13:34.510Z,9.20
2023-04-24T18:18:37.647Z,9.05
2023-04-24T18:23:41.315Z,9.03
2023-04-24T18:28:46.028Z,9.00
2023-04-24T18:33:49.876Z,8.96
2023-04-24T18:38:53.063Z,8.87
2023-04-24T18:43:59.321Z,8.63
2023-04-24T18:49:02.635Z,8.58
2023-04-24T18:54:06.059Z,8.59
2023-04-24T18:59:10.451Z,8.56
2023-04-24T19:04:13.890Z,8.49
2023-04-24T19:09:17.061Z,8.41
2023-04-24T19:14:22.827Z,8.20
2023-04-24T19:19:26.204Z,7.94
2023-04-24T19:24:29.841Z,8.00
2023-04-24T19:29:34.336Z,7.95
2023-04-24T19:34:39.702Z,7.95
2023-04-24T19:39:43.785Z,7.56
2023-04-24T19:44:48.393Z,7.45
2023-04-24T19:49:51.544Z,7.39
2023-04-24T19:54:54.617Z,7.32
2023-04-24T19:59:58.996Z,7.27
2023-04-24T20:05:02.561Z,7.20
2023-04-24T20:10:06.949Z,7.18
2023-04-24T20:15:12.441Z,7.14
2023-04-24T20:20:15.627Z,7.03
2023-04-24T20:25:18.838Z,7.02
2023-04-24T20:30:23.227Z,6.98
2023-04-24T20:35:26.405Z,6.98
2023-04-24T20:40:31.788Z,7.02
2023-04-24T20:45:37.158Z,7.08
2023-04-24T20:50:42.001Z,7.03
2023-04-24T20:55:45.163Z,6.94
2023-04-24T21:00:49.891Z,6.77
2023-04-24T21:05:53.122Z,6.83
2023-04-24T21:10:56.898Z,6.75
2023-04-24T21:16:01.485Z,6.60
2023-04-24T21:21:04.834Z,6.64
2023-04-24T21:26:08.277Z,6.59
2023-04-24T21:31:12.682Z,6.52
2023-04-24T21:36:15.764Z,6.46
2023-04-24T21:41:18.876Z,6.40
2023-04-24T21:46:23.417Z,6.34
2023-04-24T21:51:27.081Z,6.26
2023-04-24T21:56:30.217Z,6.23
2023-04-24T22:01:34.709Z,6.17
2023-04-24T22:06:38.272Z,6.09
2023-04-24T22:11:41.816Z,6.02
2023-04-24T22:16:47.797Z,5.96
2023-04-24T22:21:51.408Z,5.88
2023-04-24T22:26:54.464Z,5.83
2023-04-24T22:31:59.025Z,5.69
2023-04-24T22:37:02.073Z,5.76
2023-04-24T22:42:05.359Z,5.66
2023-04-24T22:47:09.850Z,5.66
2023-04-24T22:52:14.604Z,5.64
2023-04-24T22:57:17.747Z,5.62
2023-04-24T23:02:23.104Z,5.56
2023-04-24T23:07:26.449Z,5.58
2023-04-24T23:12:29.802Z,5.43
2023-04-24T23:17:34.261Z,5.47
2023-04-24T23:22:37.350Z,5.42
2023-04-24T23:27:40.544Z,5.36
2023-04-24T23:32:45.656Z,5.34
2023-04-24T23:37:48.740Z,5.28
2023-04-24T23:43:03.278Z,5.28
2023-04-24T23:48:13.948Z,5.23
2023-04-24T23:53:17.397Z,5.18
2023-04-24T23:58:20.578Z,5.37
